Time;durP1;ratioP1;P1;durP2;ratioP2;P2;SDS_P1;SDS_P2;PMS_P1;PMS_P2;Temp;Humidity;BMP_temperature;BMP_pressure;BME280_temperature;BME280_humidity;BME280_pressure;Samples;Min_cycle;Max_cycle;Signal;HPM_P1;HPM_P2
2023/01/05 00:01:17;;;;;;;28.98;26.80;;;13.60;99.90;;;;;;4926480;28;20035;-90
2023/01/05 00:03:43;;;;;;;36.67;33.53;;;13.60;99.90;;;;;;4926820;28;20046;-91
2023/01/05 00:06:10;;;;;;;25.25;23.85;;;13.60;99.90;;;;;;4956867;29;20039;-90
2023/01/05 00:08:37;;;;;;;27.08;25.52;;;13.60;99.90;;;;;;4894168;29;20074;-90
2023/01/05 00:25:02;;;;;;;23.55;22.35;;;13.60;99.90;;;;;;4931607;28;20050;-89
2023/01/05 00:27:28;;;;;;;22.55;21.20;;;13.60;99.90;;;;;;4939666;29;20031;-90
2023/01/05 00:29:54;;;;;;;22.80;21.40;;;13.60;99.90;;;;;;4929252;29;20036;-89
2023/01/05 00:32:20;;;;;;;22.58;21.25;;;13.60;99.90;;;;;;4952483;28;20039;-90
2023/01/05 00:34:46;;;;;;;22.40;21.00;;;13.60;99.90;;;;;;4954212;29;20047;-90
2023/01/05 00:37:12;;;;;;;21.30;20.20;;;13.60;99.90;;;;;;4952232;28;20035;-90
2023/01/05 00:39:38;;;;;;;18.77;17.67;;;13.50;99.90;;;;;;4962017;28;20031;-90
2023/01/05 00:42:05;;;;;;;20.50;19.35;;;13.50;99.90;;;;;;4943894;29;20059;-90
2023/01/05 00:44:31;;;;;;;19.90;18.67;;;13.50;99.90;;;;;;4959460;29;20035;-90
2023/01/05 00:46:57;;;;;;;18.42;17.52;;;13.50;99.90;;;;;;4957900;28;20050;-90
2023/01/05 00:49:23;;;;;;;18.27;17.17;;;13.50;99.90;;;;;;4924567;29;20044;-89
2023/01/05 00:51:49;;;;;;;22.08;20.73;;;13.50;99.90;;;;;;4940666;28;20122;-91
2023/01/05 00:54:15;;;;;;;20.45;19.08;;;13.50;99.90;;;;;;4951495;28;20054;-91
2023/01/05 00:56:41;;;;;;;19.23;18.13;;;13.50;99.90;;;;;;4938869;29;20035;-90
2023/01/05 00:59:08;;;;;;;21.70;20.20;;;13.50;99.90;;;;;;4955263;29;20046;-90
2023/01/05 01:01:34;;;;;;;21.20;20.13;;;13.50;99.90;;;;;;4938122;28;20043;-90
2023/01/05 01:04:00;;;;;;;19.98;18.75;;;13.50;99.90;;;;;;4956118;28;20031;-89
2023/01/05 01:06:27;;;;;;;21.90;20.65;;;13.50;99.90;;;;;;4937382;28;20051;-90
2023/01/05 01:08:53;;;;;;;20.83;19.73;;;13.50;99.90;;;;;;4954509;29;20034;-89
2023/01/05 01:11:19;;;;;;;22.73;21.58;;;13.50;99.90;;;;;;4954629;29;20051;-91
2023/01/05 01:13:45;;;;;;;21.50;20.08;;;13.50;99.90;;;;;;4952938;29;20543;-89
2023/01/05 01:16:13;;;;;;;21.83;20.27;;;13.50;99.90;;;;;;4953803;28;20035;-90
2023/01/05 01:18:39;;;;;;;21.85;20.50;;;13.50;99.90;;;;;;4938069;29;20389;-89
2023/01/05 01:21:05;;;;;;;25.08;23.77;;;13.50;99.90;;;;;;4954954;28;20500;-90
2023/01/05 01:23:32;;;;;;;22.65;21.25;;;13.50;99.90;;;;;;4954415;29;20055;-89
2023/01/05 01:26:06;;;;;;;21.13;19.80;;;13.50;99.90;;;;;;4954563;29;20035;-90
2023/01/05 01:28:32;;;;;;;22.58;21.38;;;13.50;99.90;;;;;;4953362;29;20030;-90
2023/01/05 01:30:58;;;;;;;22.30;21.10;;;13.40;99.90;;;;;;4930355;28;20062;-90
2023/01/05 01:33:24;;;;;;;25.92;24.20;;;13.40;99.90;;;;;;4920959;29;20059;-90
2023/01/05 01:35:50;;;;;;;28.15;26.40;;;13.40;99.90;;;;;;4946504;29;20396;-91
2023/01/05 01:38:16;;;;;;;26.85;25.20;;;13.40;99.90;;;;;;4923366;29;20035;-90
2023/01/05 01:40:44;;;;;;;28.90;27.20;;;13.50;99.90;;;;;;4919076;29;20039;-89
2023/01/05 01:43:14;;;;;;;30.27;28.08;;;13.50;99.90;;;;;;4934779;29;20046;-90
2023/01/05 01:45:40;;;;;;;31.77;29.77;;;13.40;99.90;;;;;;4924715;29;20413;-90
2023/01/05 01:48:07;;;;;;;30.95;28.98;;;13.40;99.90;;;;;;4949016;28;20282;-90
2023/01/05 01:50:38;;;;;;;28.23;26.52;;;13.40;99.90;;;;;;4933940;29;20034;-91
2023/01/05 01:53:10;;;;;;;28.85;27.08;;;13.50;99.90;;;;;;4936323;28;20044;-90
2023/01/05 01:55:37;;;;;;;26.50;24.90;;;13.50;99.90;;;;;;4937439;29;20058;-89
2023/01/05 01:58:05;;;;;;;28.60;26.65;;;13.50;99.90;;;;;;4913763;29;20500;-90
2023/01/05 02:00:31;;;;;;;29.90;28.30;;;13.50;99.90;;;;;;4921224;28;20527;-90
2023/01/05 02:02:57;;;;;;;31.33;29.65;;;13.50;99.90;;;;;;4936607;29;20042;-90
2023/01/05 02:05:29;;;;;;;25.40;23.98;;;13.50;99.90;;;;;;4954115;28;20046;-90
2023/01/05 02:07:56;;;;;;;24.40;22.77;;;13.60;99.90;;;;;;4921027;29;20392;-90
2023/01/05 02:10:59;;;;;;;27.02;25.17;;;13.50;99.90;;;;;;4936606;29;20287;-90
2023/01/05 02:13:44;;;;;;;23.77;22.35;;;13.50;99.90;;;;;;4889865;29;20048;-90
2023/01/05 02:16:24;;;;;;;23.58;22.08;;;13.50;99.90;;;;;;4879411;29;20040;-90
2023/01/05 02:18:56;;;;;;;24.73;23.10;;;13.50;99.90;;;;;;4876619;29;20041;-91
2023/01/05 02:21:43;;;;;;;22.77;21.55;;;13.60;99.90;;;;;;4877576;29;20037;-90
2023/01/05 02:24:43;;;;;;;20.38;19.17;;;13.60;99.90;;;;;;4882621;29;20153;-90
2023/01/05 02:27:33;;;;;;;19.70;18.52;;;13.50;99.90;;;;;;4881822;29;20491;-90
2023/01/05 02:30:27;;;;;;;20.55;19.33;;;13.50;99.90;;;;;;4872879;29;20048;-90
2023/01/05 02:32:59;;;;;;;22.98;21.48;;;13.50;99.90;;;;;;4889743;29;20137;-90
2023/01/05 02:35:37;;;;;;;22.08;20.83;;;13.50;99.90;;;;;;4879192;29;20461;-90
2023/01/05 02:38:11;;;;;;;20.70;19.42;;;13.50;99.90;;;;;;4895577;29;20056;-90
2023/01/05 02:40:41;;;;;;;23.05;21.35;;;13.50;99.90;;;;;;4873376;29;20430;-90
2023/01/05 02:43:08;;;;;;;21.90;20.50;;;13.50;99.90;;;;;;4876357;29;20044;-90
2023/01/05 02:45:34;;;;;;;20.95;19.63;;;13.50;99.90;;;;;;4854216;29;20041;-90
2023/01/05 02:48:01;;;;;;;21.88;20.52;;;13.50;99.90;;;;;;4862070;29;20052;-89
2023/01/05 02:51:07;;;;;;;23.83;22.35;;;13.50;99.90;;;;;;4915209;29;20394;-91
2023/01/05 02:53:42;;;;;;;19.98;18.80;;;13.50;99.90;;;;;;4876412;29;20089;-90
2023/01/05 02:56:26;;;;;;;21.50;19.63;;;13.40;99.90;;;;;;4874531;29;20152;-90
2023/01/05 02:59:15;;;;;;;22.38;21.00;;;13.40;99.90;;;;;;4879220;29;20205;-90
2023/01/05 03:01:58;;;;;;;20.83;19.60;;;13.50;99.90;;;;;;4891735;29;20133;-90
2023/01/05 03:04:44;;;;;;;22.33;20.95;;;13.50;99.90;;;;;;4879184;29;20113;-90
2023/01/05 03:07:15;;;;;;;20.77;19.52;;;13.50;99.90;;;;;;4862749;29;20039;-91
2023/01/05 03:09:41;;;;;;;22.20;20.80;;;13.50;99.90;;;;;;4862281;29;20045;-90
2023/01/05 03:15:26;;;;;;;24.27;22.88;;;13.50;99.90;;;;;;4902480;29;20152;-90
2023/01/05 03:17:57;;;;;;;22.35;20.70;;;13.40;99.90;;;;;;4873993;29;20033;-90
2023/01/05 03:20:24;;;;;;;24.50;23.10;;;13.40;99.90;;;;;;4870260;29;20036;-91
2023/01/05 03:37:17;;;;;;;21.73;20.38;;;13.50;99.90;;;;;;4916959;29;20038;-91
2023/01/05 03:39:44;;;;;;;21.67;20.17;;;13.50;99.90;;;;;;4898090;29;20048;-91
2023/01/05 03:42:10;;;;;;;23.52;22.10;;;13.50;99.90;;;;;;4921107;29;20470;-91
2023/01/05 03:44:37;;;;;;;21.15;19.63;;;13.50;99.90;;;;;;4921089;29;20035;-90
2023/01/05 03:47:03;;;;;;;20.77;19.70;;;13.40;99.90;;;;;;4920098;28;20039;-90
2023/01/05 03:49:30;;;;;;;21.15;19.60;;;13.50;99.90;;;;;;4905615;29;20046;-90
2023/01/05 03:51:56;;;;;;;23.15;21.85;;;13.50;99.90;;;;;;4918615;29;20039;-91
2023/01/05 03:54:22;;;;;;;21.05;19.65;;;13.40;99.90;;;;;;4920654;29;20044;-91
2023/01/05 03:56:48;;;;;;;20.65;19.50;;;13.50;99.90;;;;;;4911798;29;20047;-89
2023/01/05 03:59:14;;;;;;;21.73;20.38;;;13.40;99.90;;;;;;4913814;29;20038;-87
2023/01/05 04:01:40;;;;;;;19.90;18.70;;;13.50;99.90;;;;;;4898549;29;20047;-85
2023/01/05 04:04:06;;;;;;;22.08;20.67;;;13.50;99.90;;;;;;4923309;29;20393;-87
2023/01/05 04:06:32;;;;;;;20.58;19.50;;;13.50;99.90;;;;;;4916673;29;20477;-87
2023/01/05 04:08:58;;;;;;;19.63;18.52;;;13.50;99.90;;;;;;4905004;29;20031;-86
2023/01/05 04:11:25;;;;;;;21.10;19.63;;;13.50;99.90;;;;;;4903877;29;20403;-87
2023/01/05 04:13:51;;;;;;;20.35;19.13;;;13.60;99.90;;;;;;4913598;29;20048;-87
2023/01/05 04:16:17;;;;;;;24.20;22.55;;;13.60;99.90;;;;;;4895498;29;20405;-87
2023/01/05 04:18:43;;;;;;;22.55;21.35;;;13.50;99.90;;;;;;4903705;29;20036;-86
2023/01/05 04:21:09;;;;;;;22.42;21.20;;;13.50;99.90;;;;;;4925934;29;20043;-87
2023/01/05 04:23:35;;;;;;;25.38;23.85;;;13.50;99.90;;;;;;4901204;29;20039;-86
2023/01/05 04:26:01;;;;;;;23.33;21.80;;;13.50;99.90;;;;;;4901460;29;20044;-86
2023/01/05 04:28:28;;;;;;;23.52;22.15;;;13.50;99.90;;;;;;4900917;29;20035;-88
2023/01/05 04:30:54;;;;;;;23.52;22.25;;;13.50;99.90;;;;;;4907478;28;20039;-87
2023/01/05 04:33:20;;;;;;;22.77;21.35;;;13.50;99.90;;;;;;4933501;29;20043;-86
2023/01/05 04:35:46;;;;;;;23.42;22.20;;;13.50;99.90;;;;;;4920211;29;20040;-86
2023/01/05 04:38:12;;;;;;;22.60;21.20;;;13.50;99.90;;;;;;4918307;29;20035;-87
2023/01/05 04:40:39;;;;;;;23.33;22.05;;;13.50;99.90;;;;;;4902825;29;20047;-86
2023/01/05 04:43:05;;;;;;;19.17;18.08;;;13.60;99.90;;;;;;4919786;29;20042;-87
2023/01/05 04:45:31;;;;;;;21.58;20.30;;;13.50;99.90;;;;;;4936358;28;20495;-87
2023/01/05 04:47:57;;;;;;;23.63;22.20;;;13.50;99.90;;;;;;4903287;29;20074;-87
2023/01/05 04:50:24;;;;;;;102.20;24.65;;;13.50;99.90;;;;;;4914711;29;20031;-87
2023/01/05 04:52:50;;;;;;;23.17;21.80;;;13.50;99.90;;;;;;4917063;29;20397;-89
2023/01/05 04:55:16;;;;;;;22.27;21.17;;;13.50;99.90;;;;;;4916632;29;20044;-87
2023/01/05 04:57:42;;;;;;;33.55;22.08;;;13.50;99.90;;;;;;4921929;29;20043;-89
2023/01/05 05:00:10;;;;;;;22.15;20.65;;;13.50;99.90;;;;;;4908951;28;20043;-89
2023/01/05 05:02:36;;;;;;;22.42;21.05;;;13.50;99.90;;;;;;4923395;29;20039;-90
2023/01/05 05:05:02;;;;;;;21.55;20.42;;;13.50;99.90;;;;;;4941199;29;20041;-90
2023/01/05 05:07:28;;;;;;;19.55;18.35;;;13.50;99.90;;;;;;4933310;29;20046;-90
2023/01/05 05:09:54;;;;;;;20.63;19.48;;;13.50;99.90;;;;;;4924760;29;20040;-90
2023/01/05 05:12:21;;;;;;;21.77;20.48;;;13.50;99.90;;;;;;4925357;29;20511;-90
2023/01/05 05:14:47;;;;;;;21.67;20.40;;;13.50;99.90;;;;;;4924866;29;20040;-89
2023/01/05 05:17:13;;;;;;;22.10;19.83;;;13.50;99.90;;;;;;4921707;28;20045;-89
2023/01/05 05:19:40;;;;;;;56.20;24.92;;;13.50;99.90;;;;;;4923983;29;20055;-90
2023/01/05 05:22:06;;;;;;;22.33;20.88;;;13.60;99.90;;;;;;4940180;29;20057;-89
2023/01/05 05:24:32;;;;;;;25.60;24.20;;;13.70;99.90;;;;;;4935010;29;20040;-90
2023/01/05 05:26:58;;;;;;;22.35;21.25;;;13.70;99.90;;;;;;4934863;29;20366;-90
2023/01/05 05:29:24;;;;;;;23.63;22.33;;;13.60;99.90;;;;;;4935571;29;20040;-90
2023/01/05 05:31:50;;;;;;;21.23;19.95;;;13.60;99.90;;;;;;4918250;28;20038;-90
2023/01/05 05:34:17;;;;;;;20.98;19.75;;;13.60;99.90;;;;;;4919247;29;20044;-90
2023/01/05 05:36:43;;;;;;;20.95;19.63;;;13.60;99.90;;;;;;4903244;29;20044;-90
2023/01/05 05:39:13;;;;;;;21.10;19.90;;;13.60;99.90;;;;;;4903263;29;20054;-89
2023/01/05 05:41:39;;;;;;;20.75;19.65;;;13.50;99.90;;;;;;4934244;28;20055;-89
2023/01/05 05:44:05;;;;;;;23.33;22.10;;;13.50;99.90;;;;;;4936843;29;20050;-91
2023/01/05 05:46:31;;;;;;;20.65;19.63;;;13.50;99.90;;;;;;4936092;28;20047;-90
2023/01/05 05:48:57;;;;;;;21.55;20.33;;;13.40;99.90;;;;;;4936005;29;20416;-89
2023/01/05 05:51:24;;;;;;;22.63;21.30;;;13.40;99.90;;;;;;4937572;29;20042;-90
2023/01/05 05:53:50;;;;;;;20.45;19.40;;;13.40;99.90;;;;;;4937941;28;20396;-89
2023/01/05 05:56:16;;;;;;;20.40;19.40;;;13.40;99.90;;;;;;4937638;28;20027;-90
2023/01/05 05:58:42;;;;;;;21.35;20.25;;;13.40;99.90;;;;;;4921616;29;20055;-88
2023/01/05 06:01:08;;;;;;;21.05;19.85;;;13.50;99.90;;;;;;4937410;28;20035;-89
2023/01/05 06:03:34;;;;;;;22.77;21.58;;;13.50;99.90;;;;;;4937053;29;20035;-89
2023/01/05 06:06:01;;;;;;;22.02;20.73;;;13.50;99.90;;;;;;4954541;29;20396;-89
2023/01/05 06:08:28;;;;;;;19.90;18.80;;;13.50;99.90;;;;;;4937857;29;20043;-90
2023/01/05 06:10:55;;;;;;;22.55;21.13;;;13.50;99.90;;;;;;4954667;29;20039;-91
2023/01/05 06:13:21;;;;;;;19.48;18.27;;;13.50;99.90;;;;;;4937622;29;20031;-89
2023/01/05 06:15:47;;;;;;;21.45;20.15;;;13.60;99.90;;;;;;4921406;29;20031;-90
2023/01/05 06:18:13;;;;;;;21.60;20.35;;;13.60;99.90;;;;;;4935751;29;20487;-90
2023/01/05 06:20:40;;;;;;;21.67;20.48;;;13.60;99.90;;;;;;4937475;29;20027;-88
2023/01/05 06:23:06;;;;;;;21.45;20.17;;;13.60;99.90;;;;;;4953578;28;20054;-90
2023/01/05 06:25:32;;;;;;;19.63;18.63;;;13.60;99.90;;;;;;4944152;29;20027;-89
2023/01/05 06:27:58;;;;;;;20.02;19.02;;;13.70;99.90;;;;;;4936473;29;20469;-90
2023/01/05 06:30:25;;;;;;;21.08;19.95;;;13.70;99.90;;;;;;4936689;28;20506;-90
2023/01/05 06:32:51;;;;;;;19.92;18.90;;;13.80;99.90;;;;;;4950603;29;20050;-89
2023/01/05 06:35:17;;;;;;;21.00;19.80;;;13.80;99.90;;;;;;4920665;28;20059;-90
2023/01/05 06:37:43;;;;;;;29.92;19.80;;;13.70;99.90;;;;;;4940405;29;20047;-90
2023/01/05 06:40:10;;;;;;;30.20;19.77;;;13.70;99.90;;;;;;4954270;29;20478;-91
2023/01/05 06:42:37;;;;;;;727.22;107.07;;;13.60;99.90;;;;;;4916536;29;20462;-91
2023/01/05 06:45:04;;;;;;;21.48;20.17;;;13.60;99.90;;;;;;4935861;28;20420;-89
2023/01/05 06:47:30;;;;;;;20.25;18.98;;;13.60;99.90;;;;;;4921363;29;20036;-91
2023/01/05 06:49:56;;;;;;;21.50;20.10;;;13.60;99.90;;;;;;4920654;29;20036;-92
2023/01/05 06:52:22;;;;;;;19.98;18.63;;;13.70;99.90;;;;;;4927251;29;20039;-93
2023/01/05 06:54:48;;;;;;;20.33;18.95;;;13.60;99.90;;;;;;4916920;29;20113;-88
2023/01/05 06:57:14;;;;;;;20.42;19.02;;;13.60;99.90;;;;;;4937858;29;20512;-86
2023/01/05 06:59:41;;;;;;;20.52;19.25;;;13.70;99.90;;;;;;4927129;29;20039;-86
2023/01/05 07:02:16;;;;;;;21.45;19.98;;;13.60;99.90;;;;;;4902529;29;20036;-86
2023/01/05 07:04:42;;;;;;;20.67;19.50;;;13.60;99.90;;;;;;4923000;29;20036;-87
2023/01/05 07:07:12;;;;;;;22.15;20.85;;;13.60;99.90;;;;;;4912436;29;20051;-86
2023/01/05 07:09:38;;;;;;;29.38;20.80;;;13.60;99.90;;;;;;4902242;29;20032;-86
2023/01/05 07:12:05;;;;;;;21.02;19.63;;;13.50;99.90;;;;;;4926730;29;20039;-86
2023/01/05 07:14:31;;;;;;;21.52;20.25;;;13.50;99.90;;;;;;4932677;29;20052;-89
2023/01/05 07:16:57;;;;;;;22.58;21.27;;;13.50;99.90;;;;;;4918876;29;20052;-86
2023/01/05 07:19:23;;;;;;;21.08;19.92;;;13.50;99.90;;;;;;4902722;29;20028;-86
2023/01/05 07:21:49;;;;;;;21.35;19.92;;;13.50;99.90;;;;;;4901477;29;20052;-86
2023/01/05 07:24:15;;;;;;;20.67;19.27;;;13.50;99.90;;;;;;4917070;29;20040;-86
2023/01/05 07:26:41;;;;;;;21.73;20.27;;;13.60;99.90;;;;;;4920051;29;20043;-86
2023/01/05 07:29:07;;;;;;;21.25;20.05;;;13.60;99.90;;;;;;4925792;29;20035;-87
2023/01/05 07:31:34;;;;;;;60.30;21.35;;;13.60;99.90;;;;;;4920556;29;20036;-87
2023/01/05 07:34:00;;;;;;;21.17;20.08;;;13.60;99.90;;;;;;4921400;29;20540;-87
2023/01/05 07:36:26;;;;;;;23.27;21.98;;;13.50;99.90;;;;;;4909890;29;20036;-92
2023/01/05 07:38:52;;;;;;;24.33;22.83;;;13.40;99.90;;;;;;4938840;29;20437;-90
2023/01/05 07:41:18;;;;;;;27.05;25.05;;;13.30;99.90;;;;;;4933210;29;20058;-89
2023/01/05 07:43:47;;;;;;;24.80;23.17;;;13.20;99.90;;;;;;4925599;29;20031;-90
2023/01/05 07:46:14;;;;;;;23.02;21.80;;;13.10;99.90;;;;;;4946066;28;20036;-89
2023/01/05 07:48:41;;;;;;;23.40;22.15;;;13.10;99.90;;;;;;4936449;29;20023;-90
2023/01/05 07:51:07;;;;;;;24.00;22.27;;;13.20;99.90;;;;;;4926596;29;20042;-89
2023/01/05 07:53:36;;;;;;;23.48;22.08;;;13.30;99.90;;;;;;4957041;29;20520;-88
2023/01/05 07:56:02;;;;;;;19.13;17.92;;;13.30;99.90;;;;;;4955778;28;20047;-88
2023/01/05 07:58:28;;;;;;;18.85;17.60;;;13.40;99.90;;;;;;4913716;29;20031;-89
2023/01/05 08:00:55;;;;;;;20.33;19.05;;;13.40;99.90;;;;;;4937591;28;20028;-90
2023/01/05 08:03:21;;;;;;;18.10;17.05;;;13.40;99.90;;;;;;4939407;29;20038;-88
2023/01/05 08:05:47;;;;;;;19.92;18.55;;;13.40;99.90;;;;;;4923236;29;20054;-89
2023/01/05 08:08:13;;;;;;;21.30;19.90;;;13.40;99.90;;;;;;4923605;29;20046;-89
2023/01/05 08:10:41;;;;;;;21.92;20.52;;;13.40;99.90;;;;;;4923671;29;20043;-88
2023/01/05 08:15:52;;;;;;;23.33;21.42;;;13.30;99.90;;;;;;4957563;28;20428;-91
2023/01/05 08:18:18;;;;;;;20.30;18.95;;;13.40;99.90;;;;;;4938578;29;20043;-90
2023/01/05 08:20:55;;;;;;;21.95;20.35;;;13.40;99.90;;;;;;4939199;29;20035;-90
2023/01/05 08:23:23;;;;;;;22.50;21.30;;;13.40;99.90;;;;;;4929569;29;20027;-89
2023/01/05 08:25:49;;;;;;;22.88;21.48;;;13.40;99.90;;;;;;4955585;29;20392;-89
2023/01/05 08:28:15;;;;;;;22.70;21.27;;;13.40;99.90;;;;;;4921632;29;20032;-90
2023/01/05 08:30:41;;;;;;;20.33;18.98;;;13.40;99.90;;;;;;4953390;28;20047;-91
2023/01/05 08:33:07;;;;;;;22.20;20.08;;;13.50;99.90;;;;;;4955931;29;20043;-90
2023/01/05 08:35:34;;;;;;;23.65;21.92;;;13.50;99.90;;;;;;4954888;28;20040;-90
2023/01/05 08:38:00;;;;;;;21.92;20.50;;;13.40;99.90;;;;;;4955458;29;20035;-90
2023/01/05 08:40:26;;;;;;;21.73;20.50;;;13.40;99.90;;;;;;4937721;29;20493;-89
2023/01/05 08:42:52;;;;;;;21.52;20.05;;;13.40;99.90;;;;;;4956205;28;20032;-91
2023/01/05 08:45:18;;;;;;;19.77;18.38;;;13.50;99.90;;;;;;4956064;28;20035;-91
2023/01/05 08:47:44;;;;;;;20.00;18.92;;;13.50;99.90;;;;;;4939422;29;20141;-89
2023/01/05 08:50:10;;;;;;;19.80;18.45;;;13.60;99.90;;;;;;4955912;28;20035;-90
2023/01/05 08:52:37;;;;;;;20.27;18.80;;;13.60;99.90;;;;;;4932901;29;20031;-90
2023/01/05 08:55:04;;;;;;;21.00;19.50;;;13.60;99.90;;;;;;4920117;29;20401;-91
2023/01/05 08:57:30;;;;;;;21.70;20.10;;;13.60;99.90;;;;;;4937191;29;20031;-89
2023/01/05 08:59:56;;;;;;;23.42;21.83;;;13.60;99.90;;;;;;4935738;29;20044;-90
2023/01/05 09:02:22;;;;;;;22.95;21.30;;;13.70;99.90;;;;;;4918750;28;20401;-90
2023/01/05 09:04:49;;;;;;;21.17;19.45;;;13.70;99.90;;;;;;4935145;29;20043;-91
2023/01/05 09:07:15;;;;;;;22.77;21.15;;;13.70;99.90;;;;;;4940236;29;20051;-91
2023/01/05 09:09:41;;;;;;;22.92;21.33;;;13.80;99.90;;;;;;4919045;29;20070;-90
2023/01/05 09:12:07;;;;;;;23.02;20.77;;;13.80;99.90;;;;;;4937626;29;20035;-89
2023/01/05 09:14:33;;;;;;;23.13;21.17;;;13.70;99.90;;;;;;4930504;29;20039;-91
2023/01/05 09:16:59;;;;;;;21.80;19.95;;;13.60;99.90;;;;;;4937360;28;20046;-90
2023/01/05 09:19:25;;;;;;;23.52;21.17;;;13.70;99.90;;;;;;4921961;28;20039;-90
2023/01/05 09:21:52;;;;;;;18.92;17.38;;;13.60;99.90;;;;;;4921786;29;20039;-86
2023/01/05 09:24:18;;;;;;;21.60;19.30;;;13.60;99.90;;;;;;4949419;28;20031;-87
2023/01/05 09:26:44;;;;;;;19.23;17.55;;;13.80;99.90;;;;;;4950768;29;20050;-89
2023/01/05 09:29:11;;;;;;;21.70;20.10;;;13.70;99.90;;;;;;4927389;29;20043;-88
2023/01/05 09:31:37;;;;;;;22.52;20.48;;;13.70;99.90;;;;;;4950024;28;20039;-89
2023/01/05 09:34:03;;;;;;;22.30;20.25;;;13.80;99.90;;;;;;4940696;29;20035;-87
2023/01/05 09:36:31;;;;;;;23.83;21.42;;;13.80;99.90;;;;;;4947897;29;20385;-87
2023/01/05 09:38:57;;;;;;;22.85;20.85;;;13.80;99.90;;;;;;4950484;29;20496;-92
2023/01/05 09:41:46;;;;;;;24.88;22.27;;;13.80;99.90;;;;;;4941629;29;20055;-89
2023/01/05 09:44:29;;;;;;;20.83;18.70;;;13.90;99.90;;;;;;4954240;28;20080;-90
2023/01/05 09:47:00;;;;;;;24.67;22.05;;;14.00;99.90;;;;;;4952459;28;20098;-87
2023/01/05 09:49:26;;;;;;;23.25;20.88;;;14.00;99.90;;;;;;4938579;29;20043;-89
2023/01/05 09:52:07;;;;;;;24.00;21.75;;;14.10;99.90;;;;;;4945255;29;20035;-93
2023/01/05 09:54:34;;;;;;;26.23;21.33;;;14.10;99.90;;;;;;4925933;29;20047;-89
2023/01/05 09:57:00;;;;;;;23.20;21.30;;;14.10;99.90;;;;;;4929889;29;20035;-89
2023/01/05 09:59:41;;;;;;;26.05;23.85;;;14.20;99.90;;;;;;4931327;29;20038;-87
2023/01/05 10:02:13;;;;;;;;;;;14.20;99.90;;;;;;4954711;28;20046;-87
2023/01/05 10:04:39;;;;;;;23.17;21.05;;;14.20;99.90;;;;;;4955026;29;19906;-87
2023/01/05 10:07:06;;;;;;;22.45;20.23;;;14.30;99.90;;;;;;4935865;29;20023;-86
2023/01/05 10:09:35;;;;;;;23.58;21.20;;;14.20;99.90;;;;;;4931469;28;20027;-85
2023/01/05 10:15:16;;;;;;;23.95;21.48;;;14.20;99.90;;;;;;4927503;28;20519;-91
2023/01/05 10:17:43;;;;;;;23.35;21.02;;;14.20;99.90;;;;;;4936284;29;20031;-89
2023/01/05 10:20:38;;;;;;;23.00;20.45;;;14.30;99.90;;;;;;4948189;28;20023;-89
2023/01/05 10:23:29;;;;;;;22.50;20.33;;;14.40;99.90;;;;;;4948528;28;20169;-91
2023/01/05 10:26:14;;;;;;;24.65;21.75;;;14.20;99.90;;;;;;4949372;28;20042;-84
2023/01/05 10:28:59;;;;;;;25.75;20.85;;;14.20;99.90;;;;;;4936300;29;20043;-85
2023/01/05 10:32:02;;;;;;;25.25;22.27;;;14.30;99.90;;;;;;4933716;28;20035;-86
2023/01/05 10:34:37;;;;;;;20.15;18.05;;;14.50;99.90;;;;;;4942074;29;20043;-87
2023/01/05 10:37:07;;;;;;;24.98;19.90;;;14.40;99.90;;;;;;4934773;28;20035;-86
2023/01/05 10:39:55;;;;;;;25.92;20.63;;;14.30;99.90;;;;;;4935621;29;20093;-84
2023/01/05 10:42:28;;;;;;;28.40;20.08;;;14.40;99.90;;;;;;4953894;28;20047;-85
2023/01/05 10:44:55;;;;;;;28.88;21.90;;;14.50;99.90;;;;;;4936481;29;20035;-85
2023/01/05 10:47:22;;;;;;;30.65;19.95;;;14.40;99.90;;;;;;4931912;28;20031;-85
2023/01/05 10:49:49;;;;;;;26.98;20.70;;;14.40;99.90;;;;;;4916263;29;20032;-86
2023/01/05 10:52:20;;;;;;;24.13;20.02;;;14.30;99.90;;;;;;4921173;29;20050;-82
2023/01/05 10:54:57;;;;;;;22.80;20.13;;;14.30;99.90;;;;;;4933794;29;20410;-87
2023/01/05 10:57:30;;;;;;;30.35;21.40;;;14.40;99.90;;;;;;4919982;29;20326;-89
2023/01/05 10:59:58;;;;;;;25.75;22.95;;;14.40;99.90;;;;;;4932344;29;20043;-90
2023/01/05 11:02:25;;;;;;;29.08;22.95;;;14.40;99.90;;;;;;4927375;28;20036;-90
2023/01/05 11:04:52;;;;;;;31.25;21.50;;;14.40;99.90;;;;;;4931791;29;20034;-91
2023/01/05 11:07:18;;;;;;;22.77;20.40;;;14.40;99.90;;;;;;4934825;29;20038;-89
2023/01/05 11:09:45;;;;;;;32.10;22.48;;;14.50;99.90;;;;;;4936861;29;20031;-89
2023/01/05 11:12:19;;;;;;;30.98;23.13;;;14.50;99.90;;;;;;4920188;29;20043;-89
2023/01/05 11:14:48;;;;;;;25.25;21.88;;;14.50;99.90;;;;;;4934453;29;20050;-89
2023/01/05 11:17:26;;;;;;;28.75;20.42;;;14.50;99.90;;;;;;4932313;28;20036;-90
2023/01/05 11:19:53;;;;;;;26.40;20.77;;;14.40;99.90;;;;;;4917980;29;20039;-92
2023/01/05 11:22:36;;;;;;;24.00;21.63;;;14.40;99.90;;;;;;4917579;29;20484;-89
2023/01/05 11:25:21;;;;;;;29.45;21.02;;;14.50;99.90;;;;;;4937139;28;20030;-91
2023/01/05 11:28:04;;;;;;;27.80;21.50;;;14.50;99.90;;;;;;4947932;28;20484;-88
2023/01/05 11:30:30;;;;;;;24.05;21.48;;;14.40;99.90;;;;;;4953028;28;20086;-94
2023/01/05 11:32:57;;;;;;;28.25;25.52;;;14.40;99.90;;;;;;4949882;28;20031;-88
2023/01/05 11:35:31;;;;;;;27.15;24.27;;;14.50;99.90;;;;;;4932382;29;20046;-87
2023/01/05 11:37:57;;;;;;;30.33;26.45;;;14.40;99.90;;;;;;4956048;28;20388;-90
2023/01/05 11:40:27;;;;;;;25.65;23.27;;;14.50;99.90;;;;;;4938134;29;20059;-88
2023/01/05 11:42:53;;;;;;;20.20;18.10;;;14.50;99.90;;;;;;4916831;29;20592;-85
2023/01/05 11:45:21;;;;;;;26.88;20.40;;;14.50;99.90;;;;;;4916457;28;20051;-85
2023/01/05 11:47:55;;;;;;;20.63;17.05;;;14.50;99.90;;;;;;4945414;28;20036;-86
2023/01/05 11:50:25;;;;;;;19.45;17.45;;;14.50;99.90;;;;;;4924781;29;20036;-85
2023/01/05 11:52:55;;;;;;;21.20;17.85;;;14.50;99.90;;;;;;4935122;29;20286;-86
2023/01/05 11:55:35;;;;;;;21.95;18.02;;;14.60;99.90;;;;;;4935406;29;20059;-86
2023/01/05 11:58:16;;;;;;;23.70;17.63;;;14.70;99.90;;;;;;4934441;29;20742;-87
2023/01/05 12:01:18;;;;;;;20.15;16.58;;;14.80;99.90;;;;;;4935032;28;20036;-86
2023/01/05 12:03:52;;;;;;;17.95;16.15;;;14.80;99.90;;;;;;4887116;29;20665;-86
2023/01/05 12:06:49;;;;;;;19.52;17.50;;;14.90;99.90;;;;;;4861624;29;20061;-87
2023/01/05 12:09:35;;;;;;;18.30;16.67;;;14.80;99.90;;;;;;4863536;29;20517;-86
2023/01/05 12:12:18;;;;;;;16.33;14.95;;;14.80;99.90;;;;;;4871787;29;20056;-86
2023/01/05 12:15:06;;;;;;;17.67;14.60;;;14.70;99.90;;;;;;4892692;29;20567;-84
2023/01/05 12:17:43;;;;;;;16.23;14.55;;;14.70;99.90;;;;;;4865009;29;20500;-85
2023/01/05 12:20:32;;;;;;;15.00;13.57;;;14.80;99.90;;;;;;4883582;29;20395;-86
2023/01/05 12:23:26;;;;;;;15.40;13.93;;;14.80;99.90;;;;;;4861120;29;20040;-86
2023/01/05 12:26:10;;;;;;;16.10;14.50;;;14.80;99.90;;;;;;4878085;29;20040;-85
2023/01/05 12:29:11;;;;;;;15.23;14.00;;;14.80;99.90;;;;;;4882630;29;20063;-86
2023/01/05 12:32:05;;;;;;;14.75;13.02;;;14.70;99.90;;;;;;4871259;29;20038;-86
2023/01/05 12:34:57;;;;;;;13.10;11.80;;;14.60;99.90;;;;;;4872420;29;20398;-84
2023/01/05 12:37:35;;;;;;;15.00;14.00;;;14.60;99.90;;;;;;4887672;29;20051;-84
2023/01/05 12:40:26;;;;;;;13.82;12.73;;;14.60;99.90;;;;;;4936056;29;20043;-86
2023/01/05 12:43:14;;;;;;;12.90;11.30;;;14.70;99.90;;;;;;4927105;29;20039;-84
2023/01/05 12:45:59;;;;;;;13.32;12.10;;;14.80;99.90;;;;;;4919941;28;20047;-85
2023/01/05 12:48:37;;;;;;;15.27;13.88;;;14.80;99.90;;;;;;4926010;29;20032;-86
2023/01/05 12:51:03;;;;;;;16.95;15.48;;;14.80;99.90;;;;;;4898304;29;20032;-85
2023/01/05 12:53:35;;;;;;;14.82;13.32;;;14.80;99.90;;;;;;4935987;29;20032;-86
2023/01/05 12:56:08;;;;;;;14.43;13.00;;;14.80;99.90;;;;;;4936399;29;20392;-86
2023/01/05 12:58:36;;;;;;;14.60;13.30;;;14.80;99.90;;;;;;4904658;29;20035;-86
2023/01/05 13:01:03;;;;;;;15.00;13.52;;;14.90;99.90;;;;;;4887811;29;20048;-86
2023/01/05 13:03:32;;;;;;;14.68;13.25;;;14.90;99.90;;;;;;4919654;29;20031;-86
2023/01/05 13:06:30;;;;;;;15.13;13.55;;;14.80;99.90;;;;;;4904431;29;20032;-86
2023/01/05 13:09:02;;;;;;;18.17;16.88;;;14.70;99.90;;;;;;4901191;29;20043;-86
2023/01/05 13:11:35;;;;;;;15.25;13.93;;;14.70;99.90;;;;;;4885014;29;20035;-86
2023/01/05 13:14:28;;;;;;;16.20;14.77;;;14.70;99.90;;;;;;4900804;29;20036;-86
2023/01/05 13:16:59;;;;;;;16.77;15.18;;;14.60;99.90;;;;;;4916938;29;20051;-86
2023/01/05 13:19:33;;;;;;;15.57;14.13;;;14.60;99.90;;;;;;4885752;29;20039;-86
2023/01/05 13:22:02;;;;;;;14.45;13.23;;;14.60;99.90;;;;;;4919784;29;20027;-86